Time;durP1;ratioP1;P1;durP2;ratioP2;P2;SDS_P1;SDS_P2;PMS_P1;PMS_P2;Temp;Humidity;BMP_temperature;BMP_pressure;BME280_temperature;BME280_humidity;BME280_pressure;Samples;Min_cycle;Max_cycle;Signal;HPM_P1;HPM_P2
2021/08/07 00:01:27;;;;;;;9.30;3.08;;;14.20;99.90;;;;;;5096534;28;20383;-70
2021/08/07 00:03:54;;;;;;;8.48;3.42;;;14.20;99.90;;;;;;5096716;28;20024;-70
2021/08/07 00:06:20;;;;;;;4.20;2.55;;;14.40;99.90;;;;;;5097024;28;20024;-70
2021/08/07 00:08:46;;;;;;;8.73;2.75;;;14.30;99.90;;;;;;5096589;28;20472;-71
2021/08/07 00:11:13;;;;;;;11.15;2.40;;;14.20;99.90;;;;;;5096832;28;20052;-70
2021/08/07 00:13:39;;;;;;;7.50;2.20;;;14.40;99.90;;;;;;5096592;28;20024;-71
2021/08/07 00:16:05;;;;;;;6.60;2.80;;;14.30;99.90;;;;;;5096454;28;20028;-70
2021/08/07 00:18:32;;;;;;;9.98;3.00;;;14.20;99.90;;;;;;5096598;28;20035;-71
2021/08/07 00:20:57;;;;;;;6.93;2.67;;;14.50;99.90;;;;;;5097794;28;20020;-70
2021/08/07 00:23:23;;;;;;;9.40;2.58;;;14.70;99.90;;;;;;5100480;28;20028;-70
2021/08/07 00:25:49;;;;;;;10.85;3.75;;;14.60;99.90;;;;;;5100883;28;20020;-70
2021/08/07 00:28:15;;;;;;;6.32;2.38;;;14.90;99.90;;;;;;5100801;28;20080;-70
2021/08/07 00:30:41;;;;;;;13.60;2.90;;;15.10;99.90;;;;;;5100693;28;20028;-70
2021/08/07 00:33:07;;;;;;;6.68;2.92;;;15.00;99.90;;;;;;5100346;28;20028;-70
2021/08/07 00:35:33;;;;;;;7.90;3.08;;;15.20;99.90;;;;;;5100320;28;20598;-70
2021/08/07 00:37:58;;;;;;;10.30;4.60;;;14.90;99.90;;;;;;5100528;28;20028;-70
2021/08/07 00:40:24;;;;;;;9.88;2.72;;;14.90;99.90;;;;;;5100447;28;20028;-70
2021/08/07 00:42:50;;;;;;;8.98;2.55;;;15.10;99.90;;;;;;5100508;28;20012;-70
2021/08/07 00:45:16;;;;;;;9.68;2.92;;;15.00;99.90;;;;;;5100284;28;20536;-70
2021/08/07 00:47:42;;;;;;;10.40;2.47;;;15.10;99.90;;;;;;5100545;28;20064;-70
2021/08/07 00:50:09;;;;;;;7.30;2.22;;;15.00;99.90;;;;;;5100408;28;20119;-70
2021/08/07 00:52:35;;;;;;;9.75;2.50;;;15.20;99.90;;;;;;5100202;28;20440;-70
2021/08/07 00:55:03;;;;;;;8.95;3.17;;;15.50;99.90;;;;;;5100114;28;20028;-70
2021/08/07 00:57:30;;;;;;;9.40;2.83;;;15.20;99.90;;;;;;5100388;28;20024;-70
2021/08/07 00:59:56;;;;;;;12.27;3.25;;;15.10;99.90;;;;;;5100227;28;20107;-70
2021/08/07 01:02:24;;;;;;;13.70;3.78;;;15.60;99.90;;;;;;5099772;28;20047;-70
2021/08/07 01:05:29;;;;;;;13.07;2.80;;;15.30;99.90;;;;;;5099933;28;20020;-70
2021/08/07 01:08:06;;;;;;;9.35;2.70;;;15.60;99.90;;;;;;5044691;28;20105;-70
2021/08/07 01:11:12;;;;;;;12.18;2.53;;;15.60;99.90;;;;;;5083075;28;20040;-70
2021/08/07 01:13:44;;;;;;;9.30;3.05;;;15.30;99.90;;;;;;5099793;28;20016;-70
2021/08/07 01:16:14;;;;;;;8.73;3.03;;;15.30;99.90;;;;;;5099648;28;20028;-70
2021/08/07 01:18:43;;;;;;;10.88;2.90;;;15.30;99.90;;;;;;5098639;28;20024;-70
2021/08/07 01:21:15;;;;;;;8.38;2.47;;;15.30;99.90;;;;;;5099509;28;20016;-70
2021/08/07 01:23:51;;;;;;;6.47;2.70;;;15.30;99.90;;;;;;5099881;28;20104;-70
2021/08/07 01:26:36;;;;;;;12.05;2.60;;;15.20;99.90;;;;;;5099380;28;20062;-70
2021/08/07 01:29:03;;;;;;;7.80;2.72;;;15.20;99.90;;;;;;5099596;28;20028;-70
2021/08/07 01:31:29;;;;;;;8.98;2.65;;;15.30;99.90;;;;;;5097832;28;20020;-70
2021/08/07 01:33:56;;;;;;;8.10;2.38;;;15.20;99.90;;;;;;5099050;28;20115;-70
2021/08/07 01:36:22;;;;;;;7.18;2.50;;;15.40;99.90;;;;;;5099267;28;20028;-70
2021/08/07 01:38:48;;;;;;;13.23;2.63;;;15.20;99.90;;;;;;5099188;28;20737;-70
2021/08/07 01:41:19;;;;;;;9.20;2.88;;;15.10;99.90;;;;;;5099202;28;20491;-71
2021/08/07 01:43:46;;;;;;;12.70;3.20;;;15.20;99.90;;;;;;5099278;28;20022;-71
2021/08/07 01:46:14;;;;;;;5.05;2.30;;;15.30;99.90;;;;;;5099365;28;20391;-71
2021/08/07 01:49:16;;;;;;;6.72;2.20;;;15.10;99.90;;;;;;5099343;28;20085;-72
2021/08/07 01:51:52;;;;;;;13.35;2.90;;;15.20;99.90;;;;;;5064619;28;20451;-72
2021/08/07 01:54:29;;;;;;;9.43;2.58;;;15.10;99.90;;;;;;5086318;28;20019;-72
2021/08/07 01:56:57;;;;;;;7.38;2.28;;;15.20;99.90;;;;;;5098826;28;20028;-72
2021/08/07 01:59:24;;;;;;;8.55;3.00;;;15.50;99.90;;;;;;5097761;28;20391;-72
2021/08/07 02:01:50;;;;;;;4.55;2.13;;;15.30;99.90;;;;;;5098638;28;20020;-72
2021/08/07 02:04:19;;;;;;;10.50;2.55;;;15.30;99.90;;;;;;5098952;28;20024;-72
2021/08/07 02:06:47;;;;;;;8.27;2.70;;;15.60;99.90;;;;;;5098730;28;20031;-72
2021/08/07 02:09:17;;;;;;;6.75;2.55;;;15.70;99.90;;;;;;5098918;28;20024;-72
2021/08/07 02:11:44;;;;;;;7.30;2.05;;;15.30;99.90;;;;;;5098829;28;20032;-71
2021/08/07 02:14:11;;;;;;;4.85;2.17;;;15.50;99.90;;;;;;5098905;28;20076;-71
2021/08/07 02:16:43;;;;;;;6.00;1.80;;;15.60;99.90;;;;;;5097017;28;20032;-72
2021/08/07 02:19:09;;;;;;;6.10;2.15;;;15.30;99.90;;;;;;5098699;28;20502;-72
2021/08/07 02:21:36;;;;;;;7.10;2.30;;;15.40;99.90;;;;;;5098373;28;20026;-71
2021/08/07 02:24:02;;;;;;;8.23;2.55;;;15.70;99.90;;;;;;5098419;28;20059;-71
2021/08/07 02:26:29;;;;;;;6.20;1.70;;;15.50;99.90;;;;;;5098210;28;20042;-71
2021/08/07 02:28:55;;;;;;;3.70;2.00;;;15.60;99.90;;;;;;5097086;28;20046;-71
2021/08/07 02:31:22;;;;;;;4.60;1.90;;;15.20;99.90;;;;;;5097905;28;20024;-71
2021/08/07 02:33:49;;;;;;;3.45;1.80;;;15.70;99.90;;;;;;5096886;28;20035;-72
2021/08/07 02:36:16;;;;;;;4.63;2.00;;;15.70;99.90;;;;;;5098055;28;20475;-71
2021/08/07 02:38:43;;;;;;;4.82;2.13;;;15.60;99.90;;;;;;5098209;28;20499;-70
2021/08/07 02:41:10;;;;;;;8.98;3.42;;;15.70;99.90;;;;;;5098095;28;20383;-69
2021/08/07 02:43:37;;;;;;;8.23;3.05;;;15.70;99.90;;;;;;5097873;28;20015;-70
2021/08/07 02:46:02;;;;;;;8.48;2.72;;;15.80;99.90;;;;;;5097795;28;20028;-70
2021/08/07 02:48:30;;;;;;;8.35;2.42;;;15.50;99.90;;;;;;5098141;28;20035;-70
2021/08/07 02:50:57;;;;;;;7.13;2.38;;;15.70;99.90;;;;;;5097780;28;20040;-70
2021/08/07 02:53:24;;;;;;;5.35;2.13;;;15.80;99.90;;;;;;5097837;28;20032;-70
2021/08/07 02:55:50;;;;;;;7.00;2.42;;;16.00;99.90;;;;;;5097974;28;20498;-70
2021/08/07 02:58:16;;;;;;;8.00;3.30;;;16.00;99.90;;;;;;5097974;28;20020;-70
2021/08/07 03:00:42;;;;;;;9.77;2.53;;;16.10;99.90;;;;;;5097728;28;20074;-70
2021/08/07 03:03:08;;;;;;;14.40;2.45;;;15.90;99.90;;;;;;5097775;28;20024;-70
2021/08/07 03:05:34;;;;;;;12.70;2.80;;;15.70;99.90;;;;;;5097718;28;20017;-71
2021/08/07 03:08:00;;;;;;;12.70;3.42;;;15.90;99.90;;;;;;5097644;28;20074;-71
2021/08/07 03:10:26;;;;;;;8.50;3.55;;;15.80;99.90;;;;;;5097480;28;20016;-70
2021/08/07 03:12:56;;;;;;;8.23;2.60;;;15.70;99.90;;;;;;5097643;28;20438;-70
2021/08/07 03:15:23;;;;;;;6.63;2.53;;;15.80;99.90;;;;;;5097483;28;20024;-70
2021/08/07 03:17:49;;;;;;;4.97;1.70;;;15.80;99.90;;;;;;5097247;28;20020;-70
2021/08/07 03:20:16;;;;;;;8.60;1.88;;;15.80;99.90;;;;;;5097574;28;20020;-70
2021/08/07 03:22:42;;;;;;;10.90;2.90;;;15.80;99.90;;;;;;5097543;28;20392;-70
2021/08/07 03:25:09;;;;;;;6.95;2.35;;;15.70;99.90;;;;;;5097362;28;20069;-70
2021/08/07 03:27:35;;;;;;;16.83;3.15;;;15.90;99.90;;;;;;5097086;28;20472;-70
2021/08/07 03:30:01;;;;;;;11.57;2.78;;;15.80;99.90;;;;;;5097498;28;20373;-70
2021/08/07 03:32:27;;;;;;;10.05;2.30;;;15.70;99.90;;;;;;5096652;28;20028;-71
2021/08/07 03:34:52;;;;;;;12.25;3.00;;;15.80;99.90;;;;;;5097110;28;20439;-70
2021/08/07 03:37:18;;;;;;;7.03;2.35;;;16.00;99.90;;;;;;5097048;28;20032;-70
2021/08/07 03:39:44;;;;;;;9.82;2.40;;;16.00;99.90;;;;;;5097124;28;20027;-70
2021/08/07 03:42:10;;;;;;;6.72;2.42;;;15.80;99.90;;;;;;5097101;28;20026;-72
2021/08/07 03:44:36;;;;;;;6.82;2.08;;;15.70;99.90;;;;;;5097232;28;20016;-70
2021/08/07 03:47:02;;;;;;;8.63;2.00;;;16.10;99.90;;;;;;5096701;28;20038;-70
2021/08/07 03:49:27;;;;;;;3.30;1.63;;;15.90;99.90;;;;;;5097053;28;20028;-70
2021/08/07 03:51:53;;;;;;;5.93;1.63;;;15.90;99.90;;;;;;5096878;28;20024;-70
2021/08/07 03:54:19;;;;;;;2.80;1.67;;;15.70;99.90;;;;;;5096602;28;20430;-70
2021/08/07 03:56:45;;;;;;;3.70;1.90;;;15.60;99.90;;;;;;5096558;28;20039;-70
2021/08/07 03:59:11;;;;;;;2.63;1.60;;;15.80;99.90;;;;;;5097293;28;20020;-70
2021/08/07 04:01:36;;;;;;;3.55;1.70;;;15.60;99.90;;;;;;5096483;28;20024;-70
2021/08/07 04:04:02;;;;;;;7.38;2.72;;;15.60;99.90;;;;;;5097073;28;20073;-70
2021/08/07 04:06:28;;;;;;;6.45;2.15;;;15.70;99.90;;;;;;5096686;28;20028;-70
2021/08/07 04:08:54;;;;;;;3.72;1.65;;;15.70;99.90;;;;;;5096913;28;20605;-70
2021/08/07 04:11:20;;;;;;;4.68;1.65;;;15.30;99.90;;;;;;5096638;28;20020;-70
2021/08/07 04:13:46;;;;;;;3.55;1.40;;;15.30;99.90;;;;;;5096882;28;20012;-70
2021/08/07 04:16:12;;;;;;;5.25;1.50;;;15.30;99.90;;;;;;5096694;28;20066;-71
2021/08/07 04:18:37;;;;;;;2.88;1.60;;;15.20;99.90;;;;;;5096976;28;20104;-70
2021/08/07 04:21:03;;;;;;;1.80;1.13;;;15.40;99.90;;;;;;5096507;28;20123;-70
2021/08/07 04:23:29;;;;;;;2.72;1.52;;;15.60;99.90;;;;;;5096799;28;20017;-70
2021/08/07 04:25:55;;;;;;;4.57;1.45;;;15.60;99.90;;;;;;5095229;28;20074;-70
2021/08/07 04:28:21;;;;;;;7.10;2.13;;;15.30;99.90;;;;;;5096842;28;20384;-70
2021/08/07 04:30:47;;;;;;;19.85;2.90;;;15.60;99.90;;;;;;5096349;28;20031;-70
2021/08/07 04:33:12;;;;;;;6.45;2.13;;;15.50;99.90;;;;;;5096674;28;20028;-70
2021/08/07 04:35:39;;;;;;;9.57;2.50;;;15.70;99.90;;;;;;5096220;28;20052;-70
2021/08/07 04:38:05;;;;;;;11.77;2.63;;;15.70;99.90;;;;;;5096549;28;20153;-70
2021/08/07 04:40:31;;;;;;;13.65;2.58;;;15.50;99.90;;;;;;5096480;28;20040;-70
2021/08/07 04:42:57;;;;;;;8.63;2.10;;;15.30;99.90;;;;;;5096518;28;20101;-70
2021/08/07 04:45:23;;;;;;;6.80;2.15;;;15.50;99.90;;;;;;5096247;28;20028;-70
2021/08/07 04:47:58;;;;;;;11.63;2.17;;;15.50;99.90;;;;;;5096559;28;20028;-70
2021/08/07 04:50:26;;;;;;;7.40;2.47;;;15.70;99.90;;;;;;5095012;28;20016;-70
2021/08/07 04:52:54;;;;;;;4.53;2.13;;;15.30;99.90;;;;;;5096401;28;20056;-70
2021/08/07 04:55:19;;;;;;;5.78;1.92;;;15.10;99.90;;;;;;5096226;28;20047;-70
2021/08/07 04:57:46;;;;;;;9.75;2.63;;;15.30;99.90;;;;;;5096433;28;20038;-70
2021/08/07 05:00:12;;;;;;;6.97;2.28;;;15.20;99.90;;;;;;5096236;28;20102;-70
2021/08/07 05:02:38;;;;;;;8.13;2.30;;;15.20;99.90;;;;;;5096267;28;20027;-70
2021/08/07 05:05:05;;;;;;;4.60;2.13;;;15.10;99.90;;;;;;5096186;28;20024;-70
2021/08/07 05:07:31;;;;;;;6.18;1.85;;;15.10;99.90;;;;;;5099510;28;20024;-70
2021/08/07 05:10:00;;;;;;;9.13;2.10;;;15.20;99.90;;;;;;5098467;28;20039;-70
2021/08/07 05:12:27;;;;;;;7.70;2.60;;;14.90;99.90;;;;;;5099978;28;20103;-70
2021/08/07 05:14:56;;;;;;;5.10;1.88;;;14.90;99.90;;;;;;5099684;28;20492;-70
2021/08/07 05:17:24;;;;;;;9.25;2.67;;;14.80;99.90;;;;;;5099863;28;20020;-70
2021/08/07 05:19:50;;;;;;;11.48;2.47;;;14.80;99.90;;;;;;5099691;28;20567;-70
2021/08/07 05:22:16;;;;;;;5.43;2.20;;;14.70;99.90;;;;;;5099806;28;20059;-70
2021/08/07 05:24:42;;;;;;;6.72;2.10;;;14.70;99.90;;;;;;5099619;28;20099;-70
2021/08/07 05:27:08;;;;;;;7.70;2.50;;;15.00;99.90;;;;;;5099549;28;20456;-70
2021/08/07 05:29:34;;;;;;;9.20;2.80;;;15.00;99.90;;;;;;5099506;28;20052;-70
2021/08/07 05:32:00;;;;;;;9.35;2.45;;;14.80;99.90;;;;;;5097782;28;20035;-70
2021/08/07 05:34:26;;;;;;;7.13;2.50;;;14.90;99.90;;;;;;5097962;28;20143;-70
2021/08/07 05:36:52;;;;;;;8.52;3.03;;;15.00;99.90;;;;;;5099460;28;20052;-70
2021/08/07 05:39:18;;;;;;;9.25;2.55;;;15.00;99.90;;;;;;5099246;28;20024;-70
2021/08/07 05:41:44;;;;;;;8.68;3.20;;;14.90;99.90;;;;;;5099367;28;20020;-70
2021/08/07 05:44:09;;;;;;;5.65;2.40;;;14.90;99.90;;;;;;5099473;28;20020;-70
2021/08/07 05:46:35;;;;;;;4.97;2.25;;;15.00;99.90;;;;;;5097822;28;20024;-70
2021/08/07 05:49:02;;;;;;;5.82;2.45;;;15.00;99.90;;;;;;5099138;28;20024;-70
2021/08/07 05:51:27;;;;;;;9.10;1.95;;;15.50;99.90;;;;;;5099227;28;20028;-71
2021/08/07 05:53:54;;;;;;;8.25;2.28;;;15.60;99.90;;;;;;5097615;28;20031;-70
2021/08/07 05:56:20;;;;;;;8.35;2.83;;;16.10;99.90;;;;;;5098954;28;20027;-71
2021/08/07 05:58:46;;;;;;;7.35;2.15;;;;;;;;;;5098952;28;20016;-71
2021/08/07 06:01:13;;;;;;;2.53;1.80;;;16.10;99.90;;;;;;5098840;28;20616;-70
2021/08/07 06:03:39;;;;;;;4.00;2.25;;;16.30;99.90;;;;;;5099037;28;20027;-70
2021/08/07 06:06:05;;;;;;;4.88;2.28;;;16.10;99.90;;;;;;5098949;28;20024;-70
2021/08/07 06:08:31;;;;;;;4.53;2.10;;;15.90;99.90;;;;;;5098701;28;20104;-70
2021/08/07 06:10:57;;;;;;;7.60;2.17;;;16.10;99.90;;;;;;5097486;28;20024;-70
2021/08/07 06:13:24;;;;;;;6.20;1.88;;;15.80;99.90;;;;;;5098523;28;20032;-70
2021/08/07 06:15:50;;;;;;;8.80;2.38;;;15.70;99.90;;;;;;5098467;28;20449;-70
2021/08/07 06:18:16;;;;;;;5.88;2.00;;;15.90;99.90;;;;;;5097843;28;20052;-70
2021/08/07 06:20:42;;;;;;;5.88;2.42;;;15.80;99.90;;;;;;5098793;28;20391;-70
2021/08/07 06:23:09;;;;;;;7.10;2.20;;;15.70;99.90;;;;;;5098477;28;20028;-70
2021/08/07 06:25:35;;;;;;;5.82;2.03;;;15.80;99.90;;;;;;5098518;28;20063;-70
2021/08/07 06:28:02;;;;;;;4.45;2.15;;;15.70;99.90;;;;;;5098365;28;20039;-70
2021/08/07 06:30:29;;;;;;;9.35;2.97;;;16.20;99.90;;;;;;5097045;28;20384;-70
2021/08/07 06:32:55;;;;;;;5.10;2.33;;;16.30;99.90;;;;;;5098180;28;20024;-70
2021/08/07 06:35:21;;;;;;;5.50;1.90;;;17.60;99.90;;;;;;5098110;28;20128;-70
2021/08/07 06:37:47;;;;;;;6.00;2.22;;;18.00;99.90;;;;;;5098057;28;20042;-71
2021/08/07 06:40:14;;;;;;;5.97;1.95;;;18.40;99.90;;;;;;5098384;28;20028;-71
2021/08/07 06:42:40;;;;;;;4.72;2.00;;;18.30;99.90;;;;;;5098200;28;20415;-71
2021/08/07 06:45:07;;;;;;;11.00;2.83;;;18.00;99.90;;;;;;5097911;28;20027;-71
2021/08/07 06:47:33;;;;;;;13.73;3.67;;;18.00;99.90;;;;;;5097976;28;20123;-71
2021/08/07 06:49:59;;;;;;;6.40;2.47;;;17.60;99.90;;;;;;5096626;28;20047;-70
2021/08/07 06:52:25;;;;;;;4.82;2.53;;;17.40;99.90;;;;;;5097857;28;20490;-69
2021/08/07 06:54:51;;;;;;;6.15;2.08;;;17.00;99.90;;;;;;5093180;28;20062;-69
2021/08/07 06:57:20;;;;;;;12.75;3.85;;;16.80;99.90;;;;;;5091071;28;20059;-69
2021/08/07 06:59:46;;;;;;;9.02;3.00;;;16.80;99.90;;;;;;5096197;28;20012;-70
2021/08/07 07:02:12;;;;;;;7.25;2.38;;;17.10;99.90;;;;;;5104583;28;20057;-70
2021/08/07 07:04:38;;;;;;;8.38;2.47;;;18.30;99.90;;;;;;5097931;28;20020;-70
2021/08/07 07:07:04;;;;;;;10.40;2.70;;;18.70;99.90;;;;;;5097509;28;20442;-70
2021/08/07 07:09:31;;;;;;;8.15;2.70;;;;;;;;;;5097191;28;20032;-70
2021/08/07 07:11:57;;;;;;;8.60;2.40;;;19.80;99.90;;;;;;5097343;28;20032;-70
2021/08/07 07:14:23;;;;;;;6.03;2.30;;;20.10;99.90;;;;;;5097847;28;20105;-70
2021/08/07 07:16:49;;;;;;;8.95;2.95;;;20.30;99.90;;;;;;5096774;28;20031;-70
2021/08/07 07:19:15;;;;;;;8.50;2.40;;;20.80;99.90;;;;;;5097300;28;20027;-70
2021/08/07 07:21:42;;;;;;;8.00;2.53;;;21.30;99.90;;;;;;5097186;28;20024;-68
2021/08/07 07:24:09;;;;;;;11.95;2.97;;;;;;;;;;5094784;28;20024;-71
2021/08/07 07:26:35;;;;;;;11.15;3.35;;;21.90;99.90;;;;;;5095740;28;20031;-71
2021/08/07 07:29:01;;;;;;;15.68;2.90;;;21.70;99.90;;;;;;5096940;28;20027;-70
2021/08/07 07:31:27;;;;;;;11.27;2.90;;;21.90;99.90;;;;;;5096208;28;20056;-71
2021/08/07 07:33:54;;;;;;;7.60;2.72;;;21.90;99.90;;;;;;5097102;28;20056;-71
2021/08/07 07:36:20;;;;;;;17.35;3.55;;;21.50;99.90;;;;;;5096992;28;20020;-69
2021/08/07 07:38:46;;;;;;;10.32;3.20;;;21.40;99.90;;;;;;5095698;28;20048;-70
2021/08/07 07:41:12;;;;;;;11.52;3.47;;;21.40;99.90;;;;;;5097079;28;20023;-70
2021/08/07 07:43:39;;;;;;;12.75;3.28;;;21.30;99.90;;;;;;5097223;28;20099;-71
2021/08/07 07:46:05;;;;;;;13.95;3.17;;;21.00;99.90;;;;;;5096803;28;20031;-70
2021/08/07 07:48:31;;;;;;;9.55;2.45;;;21.20;99.90;;;;;;5096996;28;20028;-70
2021/08/07 07:50:58;;;;;;;13.00;3.08;;;20.80;99.90;;;;;;5095560;28;20039;-70
2021/08/07 07:53:24;;;;;;;9.85;2.63;;;21.00;99.90;;;;;;5096844;28;20654;-70
2021/08/07 07:55:49;;;;;;;15.45;3.38;;;20.90;99.90;;;;;;5095607;28;20035;-70
2021/08/07 07:58:15;;;;;;;14.55;3.15;;;20.90;99.90;;;;;;5096953;28;20020;-70
2021/08/07 08:00:41;;;;;;;9.85;2.80;;;21.00;99.90;;;;;;5096902;28;20369;-70
2021/08/07 08:03:07;;;;;;;12.85;2.67;;;20.90;99.90;;;;;;5095444;28;20046;-70
2021/08/07 08:05:33;;;;;;;7.20;1.77;;;21.50;99.90;;;;;;5095436;28;20480;-70
2021/08/07 08:08:00;;;;;;;10.35;2.75;;;21.50;99.90;;;;;;5096799;28;20024;-70
2021/08/07 08:10:26;;;;;;;8.95;2.53;;;21.00;99.90;;;;;;5096541;28;20032;-70
2021/08/07 08:12:52;;;;;;;8.30;2.95;;;21.00;99.90;;;;;;5096676;28;20043;-70
2021/08/07 08:15:18;;;;;;;9.43;2.33;;;20.80;99.90;;;;;;5096798;28;20021;-70
2021/08/07 08:17:44;;;;;;;9.95;3.22;;;;;;;;;;5095297;28;20024;-70
2021/08/07 08:20:11;;;;;;;10.07;2.10;;;;;;;;;;5096873;28;20024;-70
2021/08/07 08:22:37;;;;;;;11.50;3.03;;;;;;;;;;5096698;28;20114;-70
2021/08/07 08:25:04;;;;;;;6.00;2.20;;;;;;;;;;5096447;28;20381;-70
2021/08/07 08:27:30;;;;;;;16.48;3.72;;;;;;;;;;5096412;28;20093;-70
2021/08/07 08:29:58;;;;;;;7.82;2.13;;;;;;;;;;5096499;28;20028;-70
2021/08/07 08:32:24;;;;;;;12.63;2.75;;;;;;;;;;5096267;28;20028;-70
2021/08/07 08:34:50;;;;;;;5.28;1.80;;;19.10;99.90;;;;;;5096448;28;20105;-70
2021/08/07 08:37:15;;;;;;;10.20;2.55;;;18.80;99.90;;;;;;5095078;28;20114;-70
2021/08/07 08:39:42;;;;;;;8.00;2.20;;;;;;;;;;5096759;28;20027;-70
2021/08/07 08:42:07;;;;;;;10.90;2.72;;;21.50;99.90;;;;;;5099070;28;20020;-70
2021/08/07 08:44:37;;;;;;;6.93;1.73;;;21.50;99.90;;;;;;5100590;28;20024;-70
2021/08/07 08:47:04;;;;;;;6.78;1.42;;;23.10;99.90;;;;;;5100184;28;20063;-70
2021/08/07 08:49:32;;;;;;;7.70;1.98;;;24.30;99.90;;;;;;5100597;28;20116;-70
2021/08/07 08:52:01;;;;;;;7.43;1.85;;;25.20;99.90;;;;;;5100198;28;20487;-70
2021/08/07 08:54:27;;;;;;;7.25;1.52;;;25.80;99.90;;;;;;5100393;28;20028;-70
2021/08/07 08:56:54;;;;;;;7.07;1.63;;;25.70;99.90;;;;;;5100056;28;20070;-70
2021/08/07 08:59:20;;;;;;;4.82;1.60;;;26.70;99.90;;;;;;5100404;28;20024;-69
2021/08/07 09:01:47;;;;;;;3.42;1.33;;;26.60;99.90;;;;;;5099825;28;20012;-70
2021/08/07 09:04:13;;;;;;;3.15;1.00;;;25.80;99.90;;;;;;5100272;28;20070;-70
2021/08/07 09:06:39;;;;;;;5.03;1.02;;;22.70;99.90;;;;;;5100033;28;20024;-70
2021/08/07 09:09:05;;;;;;;5.60;1.55;;;;;;;;;;5099911;28;20459;-70
2021/08/07 09:11:32;;;;;;;3.28;1.48;;;20.40;99.90;;;;;;5099769;28;20080;-70
2021/08/07 09:14:21;;;;;;;5.95;1.63;;;20.20;99.90;;;;;;5100099;28;20050;-70
2021/08/07 09:17:03;;;;;;;3.53;1.65;;;18.60;99.90;;;;;;5099525;28;20024;-70
2021/08/07 09:19:46;;;;;;;1.75;1.60;;;;;;;;;;5099731;28;20107;-69
2021/08/07 09:22:19;;;;;;;5.45;1.48;;;20.50;99.90;;;;;;5099811;28;20391;-69
2021/08/07 09:25:13;;;;;;;4.25;1.75;;;22.40;99.90;;;;;;5099423;28;20032;-69
2021/08/07 09:27:46;;;;;;;3.55;1.42;;;23.70;99.90;;;;;;5099598;28;20051;-70
2021/08/07 09:30:18;;;;;;;2.90;1.50;;;23.90;99.90;;;;;;5099602;28;20028;-69
2021/08/07 09:32:54;;;;;;;2.95;1.10;;;25.00;99.90;;;;;;5099182;28;20106;-69
2021/08/07 09:35:27;;;;;;;2.35;1.02;;;26.00;99.90;;;;;;5099352;28;20048;-70
2021/08/07 09:38:10;;;;;;;1.08;0.70;;;25.90;99.90;;;;;;5099321;28;20062;-70
2021/08/07 09:40:49;;;;;;;2.67;0.90;;;25.70;99.90;;;;;;5099344;28;20050;-69
2021/08/07 09:43:18;;;;;;;1.85;0.77;;;25.20;99.90;;;;;;5099539;28;20024;-70
2021/08/07 09:45:56;;;;;;;1.20;0.82;;;25.40;99.90;;;;;;5098880;28;20036;-70
2021/08/07 09:48:30;;;;;;;1.35;0.63;;;25.80;99.90;;;;;;5099275;28;20062;-69
2021/08/07 09:50:56;;;;;;;2.58;1.40;;;26.70;99.90;;;;;;5099129;28;20090;-69
2021/08/07 09:53:27;;;;;;;3.78;1.17;;;27.30;99.90;;;;;;5097940;28;20480;-69
2021/08/07 09:56:02;;;;;;;2.28;1.05;;;27.20;99.90;;;;;;5098834;28;20024;-70
2021/08/07 09:58:28;;;;;;;1.67;0.65;;;26.70;99.90;;;;;;5099000;28;20013;-70
2021/08/07 10:00:54;;;;;;;1.83;0.70;;;26.20;99.90;;;;;;5098892;28;20077;-69
2021/08/07 10:03:23;;;;;;;2.72;1.20;;;26.10;99.90;;;;;;5098807;28;20020;-69
2021/08/07 10:05:50;;;;;;;2.03;0.65;;;26.00;99.90;;;;;;5099044;28;20080;-69
2021/08/07 10:08:17;;;;;;;4.88;0.90;;;26.30;99.90;;;;;;5097319;28;20024;-69
2021/08/07 10:10:48;;;;;;;4.85;1.10;;;26.40;99.90;;;;;;5098850;28;20043;-58
2021/08/07 10:13:14;;;;;;;1.52;0.70;;;26.70;99.90;;;;;;5098790;28;20035;-59
2021/08/07 10:15:41;;;;;;;1.08;0.50;;;27.10;99.90;;;;;;5093156;28;20028;-59
2021/08/07 10:18:07;;;;;;;1.65;0.80;;;27.60;99.90;;;;;;5099282;28;20073;-59
2021/08/07 10:20:35;;;;;;;3.15;0.73;;;27.50;99.90;;;;;;5099739;28;20032;-59
2021/08/07 10:23:02;;;;;;;2.67;0.60;;;27.60;99.90;;;;;;5101576;28;20023;-59
2021/08/07 10:25:28;;;;;;;4.05;0.85;;;27.80;99.90;;;;;;5098234;28;20032;-59
2021/08/07 10:27:58;;;;;;;1.13;0.50;;;27.70;99.70;;;;;;5098336;28;20395;-59
2021/08/07 10:30:24;;;;;;;1.45;0.60;;;;;;;;;;5098061;28;20020;-59
2021/08/07 10:32:54;;;;;;;0.88;0.40;;;28.00;98.10;;;;;;5100085;28;20017;-59
2021/08/07 10:35:26;;;;;;;1.52;0.40;;;28.20;98.80;;;;;;5107622;28;20082;-59
2021/08/07 10:37:57;;;;;;;2.03;0.75;;;28.90;98.20;;;;;;5097794;28;20519;-59
2021/08/07 10:40:23;;;;;;;1.88;0.63;;;28.90;98.60;;;;;;5098160;28;20054;-59
2021/08/07 10:42:50;;;;;;;2.03;0.63;;;;;;;;;;5098265;28;20017;-59
2021/08/07 10:45:17;;;;;;;2.35;0.50;;;28.00;96.40;;;;;;5097466;28;20024;-59
2021/08/07 10:47:46;;;;;;;2.05;0.70;;;27.50;97.30;;;;;;5098004;28;20024;-59
2021/08/07 10:50:32;;;;;;;1.00;0.60;;;27.50;97.20;;;;;;5098295;28;20392;-59
2021/08/07 10:53:01;;;;;;;1.77;0.77;;;27.70;97.00;;;;;;5095961;28;20028;-59
2021/08/07 10:55:50;;;;;;;4.60;1.17;;;28.10;99.10;;;;;;5097362;28;20042;-59
2021/08/07 10:58:34;;;;;;;2.67;0.50;;;28.30;97.30;;;;;;5097958;28;20047;-60
2021/08/07 11:01:29;;;;;;;4.43;1.20;;;28.40;97.00;;;;;;5097167;28;20369;-60
2021/08/07 11:04:01;;;;;;;;;;;28.40;96.10;;;;;;5075465;28;20044;-59
2021/08/07 11:06:58;;;;;;;5.07;1.15;;;26.50;97.90;;;;;;5097201;28;19953;-59
2021/08/07 11:09:30;;;;;;;1.73;0.77;;;26.30;97.50;;;;;;5099035;28;20040;-59
2021/08/07 11:12:11;;;;;;;2.90;0.82;;;26.70;96.30;;;;;;5100196;28;20032;-59
2021/08/07 11:14:40;;;;;;;4.55;1.40;;;26.50;95.80;;;;;;5097010;28;20391;-60
2021/08/07 11:17:06;;;;;;;1.08;0.65;;;26.60;96.80;;;;;;5097559;28;20024;-59
2021/08/07 11:19:50;;;;;;;4.30;0.80;;;26.90;97.30;;;;;;5097561;28;20100;-59
2021/08/07 11:22:43;;;;;;;1.42;0.65;;;27.30;95.40;;;;;;5097261;28;20024;-59
2021/08/07 11:25:18;;;;;;;2.85;0.88;;;27.60;96.00;;;;;;5096697;28;20024;-60
2021/08/07 11:27:52;;;;;;;4.67;0.97;;;27.50;96.00;;;;;;5096108;28;20492;-59
2021/08/07 11:30:29;;;;;;;3.20;0.63;;;26.70;96.00;;;;;;5095405;28;20258;-58
2021/08/07 11:32:58;;;;;;;2.55;0.85;;;26.80;95.40;;;;;;5089971;28;20058;-59
2021/08/07 11:35:33;;;;;;;3.38;0.85;;;26.90;95.00;;;;;;5097382;28;20067;-59
2021/08/07 11:38:13;;;;;;;2.47;0.75;;;27.00;96.50;;;;;;5116690;28;20073;-59
2021/08/07 11:40:54;;;;;;;1.90;0.80;;;27.80;96.60;;;;;;5102297;28;20036;-59
2021/08/07 11:43:22;;;;;;;3.63;1.30;;;27.60;96.00;;;;;;5097055;28;20026;-59
2021/08/07 11:46:01;;;;;;;3.08;1.10;;;28.00;96.00;;;;;;5096739;28;20099;-60
2021/08/07 11:48:34;;;;;;;2.92;0.68;;;28.90;95.50;;;;;;5096540;28;20031;-59
2021/08/07 11:51:06;;;;;;;2.08;0.88;;;29.00;93.40;;;;;;5099680;28;20107;-60
2021/08/07 11:53:33;;;;;;;2.60;1.02;;;28.80;93.60;;;;;;5096855;28;20447;-60
2021/08/07 11:56:00;;;;;;;2.47;0.80;;;29.10;94.10;;;;;;5096297;28;20032;-60
2021/08/07 11:58:28;;;;;;;6.38;1.77;;;29.20;93.00;;;;;;5097002;28;20043;-60
2021/08/07 12:00:59;;;;;;;5.05;0.93;;;29.40;93.90;;;;;;5096833;28;20035;-60
2021/08/07 12:03:26;;;;;;;1.90;1.00;;;29.60;91.60;;;;;;5096387;28;20089;-60
2021/08/07 12:05:54;;;;;;;2.75;1.17;;;29.10;91.80;;;;;;5096237;28;20020;-60
2021/08/07 12:08:22;;;;;;;7.93;1.92;;;28.30;91.50;;;;;;5111835;28;20049;-60
2021/08/07 12:10:57;;;;;;;1.65;1.00;;;27.80;93.10;;;;;;5116657;28;20023;-59
2021/08/07 12:13:38;;;;;;;5.15;1.20;;;27.40;91.20;;;;;;5116963;28;20092;-60
2021/08/07 12:16:13;;;;;;;4.93;1.00;;;27.10;93.80;;;;;;5117567;28;20072;-59
2021/08/07 12:18:45;;;;;;;3.83;1.40;;;27.00;94.00;;;;;;5114350;28;20092;-60
2021/08/07 12:21:24;;;;;;;10.50;1.50;;;27.60;94.60;;;;;;5121413;28;20090;-60
2021/08/07 12:23:57;;;;;;;3.67;1.13;;;28.10;93.50;;;;;;5120870;28;20079;-60
2021/08/07 12:26:25;;;;;;;3.10;1.00;;;28.80;91.90;;;;;;5116733;28;20023;-59
2021/08/07 12:29:03;;;;;;;3.50;1.20;;;28.60;92.40;;;;;;5109694;28;20078;-59
2021/08/07 12:31:42;;;;;;;2.42;1.17;;;28.70;91.90;;;;;;5099666;28;20020;-60
2021/08/07 12:34:22;;;;;;;4.07;1.00;;;28.10;96.40;;;;;;5100433;28;20051;-60
2021/08/07 12:37:12;;;;;;;3.60;0.95;;;28.20;95.40;;;;;;5100688;28;20034;-60
2021/08/07 12:39:53;;;;;;;5.10;1.35;;;28.30;94.10;;;;;;5100091;28;20044;-59
2021/08/07 12:42:26;;;;;;;6.50;1.63;;;27.60;92.90;;;;;;5100345;28;20102;-59
2021/08/07 12:44:57;;;;;;;4.68;1.50;;;27.90;94.70;;;;;;5099862;28;20590;-60
2021/08/07 12:47:31;;;;;;;3.70;1.30;;;27.60;94.80;;;;;;5098316;28;20150;-59
2021/08/07 12:50:08;;;;;;;3.40;1.23;;;28.00;93.30;;;;;;5100074;28;20466;-59
2021/08/07 12:52:51;;;;;;;3.55;1.42;;;26.70;94.00;;;;;;5099766;28;20036;-59
2021/08/07 12:55:20;;;;;;;4.38;1.20;;;26.10;94.80;;;;;;5099777;28;20028;-60
2021/08/07 12:57:46;;;;;;;3.78;1.10;;;25.50;94.70;;;;;;5108946;28;20506;-59
2021/08/07 13:00:13;;;;;;;3.95;1.38;;;25.10;95.10;;;;;;5120351;28;20437;-59